Time;durP1;ratioP1;P1;durP2;ratioP2;P2;SDS_P1;SDS_P2;PMS_P1;PMS_P2;Temp;Humidity;BMP_temperature;BMP_pressure;BME280_temperature;BME280_humidity;BME280_pressure;Samples;Min_cycle;Max_cycle;Signal;HPM_P1;HPM_P2
2022/07/22 00:00:07;;;;;;;9.48;3.65;;;;;;;15.66;89.92;102046.84;5070637;28;20141;-75
2022/07/22 00:02:34;;;;;;;10.02;3.58;;;;;;;15.68;89.67;102049.44;5074597;28;20037;-76
2022/07/22 00:05:01;;;;;;;9.40;3.90;;;;;;;15.69;89.67;102048.50;5071806;28;20052;-76
2022/07/22 00:07:29;;;;;;;8.52;3.42;;;;;;;15.71;89.48;102052.00;5072704;28;20068;-72
2022/07/22 00:09:56;;;;;;;12.75;3.88;;;;;;;15.72;89.58;102048.41;5088886;28;20095;-74
2022/07/22 00:12:23;;;;;;;8.15;3.60;;;;;;;15.74;89.38;102048.38;5077464;28;20044;-72
2022/07/22 00:14:50;;;;;;;10.68;3.55;;;;;;;15.74;89.71;102045.72;5072940;28;20037;-72
2022/07/22 00:17:17;;;;;;;11.15;3.63;;;;;;;15.77;89.73;102050.94;5072191;28;20440;-72
2022/07/22 00:19:44;;;;;;;12.35;3.97;;;;;;;15.78;89.79;102053.53;5073740;28;20436;-72
2022/07/22 00:22:11;;;;;;;10.30;3.70;;;;;;;15.81;89.79;102052.56;5074911;28;20111;-72
2022/07/22 00:24:38;;;;;;;9.95;3.88;;;;;;;15.84;89.45;102050.69;5076951;28;20037;-71
2022/07/22 00:27:06;;;;;;;9.40;3.80;;;;;;;15.87;89.43;102056.81;5073641;28;20452;-72
2022/07/22 00:29:33;;;;;;;12.15;4.30;;;;;;;15.91;89.48;102055.81;5071178;28;20946;-71
2022/07/22 00:32:00;;;;;;;10.10;4.00;;;;;;;15.95;89.09;102049.47;5073123;28;20161;-71
2022/07/22 00:34:27;;;;;;;12.70;3.30;;;;;;;15.98;88.61;102052.03;5073404;28;20088;-71
2022/07/22 00:36:55;;;;;;;10.07;2.95;;;;;;;15.99;88.24;102049.31;5072683;28;20080;-71
2022/07/22 00:39:22;;;;;;;10.95;3.15;;;;;;;16.01;87.91;102049.28;5072563;28;20088;-71
2022/07/22 00:41:50;;;;;;;12.70;3.25;;;;;;;16.01;88.08;102045.72;5071926;28;20045;-72
2022/07/22 00:44:17;;;;;;;9.57;2.85;;;;;;;16.01;86.93;102038.63;5068647;28;20132;-71
2022/07/22 00:46:44;;;;;;;8.98;2.70;;;;;;;16.03;86.21;102044.75;5061042;28;20096;-71
2022/07/22 00:49:12;;;;;;;6.82;2.58;;;;;;;15.99;86.48;102036.00;5069773;28;20112;-71
2022/07/22 00:51:39;;;;;;;12.30;3.08;;;;;;;16.01;86.91;102045.72;5072728;28;20096;-71
2022/07/22 00:54:08;;;;;;;15.48;2.40;;;;;;;16.03;86.45;102035.91;5072054;28;20110;-71
2022/07/22 00:56:36;;;;;;;10.73;2.55;;;;;;;16.02;86.69;102035.06;5088898;28;20033;-70
2022/07/22 00:59:11;;;;;;;11.90;3.33;;;;;;;16.03;86.81;102036.75;5087311;28;20049;-72
2022/07/22 01:01:38;;;;;;;10.80;2.47;;;;;;;16.03;87.18;102028.78;5088323;28;20435;-72
2022/07/22 01:04:06;;;;;;;5.82;2.28;;;;;;;16.07;87.03;102032.25;5072880;28;20099;-72
2022/07/22 01:06:34;;;;;;;9.57;3.00;;;;;;;16.05;86.21;102024.28;5072300;28;20049;-71
2022/07/22 01:09:02;;;;;;;17.02;2.90;;;;;;;16.03;86.56;102027.94;5071073;28;20068;-72
2022/07/22 01:11:30;;;;;;;14.98;2.90;;;;;;;16.01;86.67;102030.66;5076871;28;20041;-72
2022/07/22 01:13:57;;;;;;;9.43;3.00;;;;;;;16.00;86.88;102028.91;5087735;28;20041;-72
2022/07/22 01:16:25;;;;;;;10.88;2.55;;;;;;;16.01;86.71;102035.09;5070823;28;20045;-71
2022/07/22 01:18:52;;;;;;;10.18;2.25;;;;;;;15.99;86.95;102029.81;5071853;28;20052;-72
2022/07/22 01:21:21;;;;;;;14.27;2.70;;;;;;;16.02;86.50;102037.72;5070538;28;20111;-72
2022/07/22 01:23:49;;;;;;;11.75;2.55;;;;;;;16.02;86.46;102037.72;5073452;28;20049;-72
2022/07/22 01:26:17;;;;;;;11.15;2.30;;;;;;;16.04;86.67;102042.97;5072425;28;20127;-72
2022/07/22 01:28:44;;;;;;;11.25;3.05;;;;;;;16.07;86.81;102045.53;5072529;28;20132;-71
2022/07/22 01:31:13;;;;;;;9.88;2.25;;;;;;;16.10;86.75;102040.97;5087078;28;20040;-71
2022/07/22 01:33:42;;;;;;;12.90;2.75;;;;;;;16.12;86.82;102038.25;5086967;28;20168;-71
2022/07/22 01:36:09;;;;;;;9.40;2.83;;;;;;;16.15;86.75;102043.47;5071058;28;20049;-71
2022/07/22 01:38:37;;;;;;;6.55;2.42;;;;;;;16.13;86.65;102035.53;5081208;28;20474;-71
2022/07/22 01:41:05;;;;;;;12.25;3.00;;;;;;;16.14;86.85;102031.94;5083317;28;20037;-71
2022/07/22 01:43:33;;;;;;;8.90;2.63;;;;;;;16.14;86.95;102037.25;5087678;28;20043;-71
2022/07/22 01:46:01;;;;;;;8.32;2.83;;;;;;;16.16;87.33;102039.88;5071061;28;20048;-71
2022/07/22 01:48:30;;;;;;;11.85;3.05;;;;;;;16.18;87.47;102032.69;5085471;28;20499;-71
2022/07/22 01:50:58;;;;;;;17.55;2.80;;;;;;;16.19;87.62;102038.91;5068956;28;20072;-72
2022/07/22 01:53:26;;;;;;;11.85;3.35;;;;;;;16.22;87.66;102045.00;5070083;28;20041;-71
2022/07/22 01:55:53;;;;;;;11.88;2.85;;;;;;;16.21;87.49;102031.75;5087308;28;20112;-71
2022/07/22 01:58:21;;;;;;;8.82;2.53;;;;;;;16.19;87.56;102026.47;5071704;28;20049;-70
2022/07/22 02:00:49;;;;;;;11.20;2.47;;;;;;;16.21;87.32;102026.44;5070787;28;20168;-71
2022/07/22 02:03:16;;;;;;;10.75;2.90;;;;;;;16.22;87.14;102028.16;5070212;28;20029;-71
2022/07/22 02:05:45;;;;;;;10.00;2.85;;;;;;;16.20;87.16;102022.88;5078720;28;20046;-71
2022/07/22 02:08:20;;;;;;;10.98;3.00;;;;;;;16.21;87.18;102035.25;5064576;28;20045;-71
2022/07/22 02:11:07;;;;;;;10.10;2.67;;;;;;;16.22;87.44;102022.84;5067726;28;20510;-71
2022/07/22 02:13:42;;;;;;;12.50;3.22;;;;;;;16.21;87.50;102019.31;5084024;28;20045;-71
2022/07/22 02:16:10;;;;;;;7.47;2.60;;;;;;;16.24;87.39;102020.97;5081720;28;20551;-71
2022/07/22 02:18:46;;;;;;;9.60;2.60;;;;;;;16.27;86.76;102021.75;5080171;28;20060;-71
2022/07/22 02:21:15;;;;;;;10.63;2.63;;;;;;;16.26;86.35;102022.69;5071091;28;20116;-71
2022/07/22 02:23:42;;;;;;;8.70;2.90;;;;;;;16.25;86.27;102017.41;5087137;28;20049;-72
2022/07/22 02:26:10;;;;;;;8.68;3.00;;;;;;;16.24;86.60;102028.97;5085640;28;20053;-71
2022/07/22 02:28:37;;;;;;;9.38;2.95;;;;;;;16.22;86.92;102026.38;5070336;28;20069;-71
2022/07/22 02:31:05;;;;;;;7.05;2.80;;;;;;;16.23;87.15;102027.22;5070122;28;20475;-71
2022/07/22 02:33:33;;;;;;;11.88;2.60;;;;;;;16.21;87.20;102021.97;5083165;28;20071;-71
2022/07/22 02:36:01;;;;;;;9.50;2.70;;;;;;;16.21;87.28;102021.09;5068996;28;20049;-71
2022/07/22 02:38:31;;;;;;;10.70;2.97;;;;;;;16.19;87.35;102017.63;5069885;28;20491;-71
2022/07/22 02:40:59;;;;;;;9.38;2.90;;;;;;;16.20;87.47;102019.38;5070085;28;20033;-71
2022/07/22 02:43:26;;;;;;;9.60;2.83;;;;;;;16.18;87.46;102008.75;5070546;28;20068;-71
2022/07/22 02:45:55;;;;;;;10.50;3.50;;;;;;;16.20;87.51;102024.69;5087352;28;20109;-73
2022/07/22 02:48:22;;;;;;;10.98;2.50;;;;;;;16.20;87.44;102019.38;5070275;28;20068;-74
2022/07/22 02:50:49;;;;;;;10.80;3.22;;;;;;;16.19;87.63;102010.50;5066557;28;20041;-74
2022/07/22 02:53:23;;;;;;;7.30;3.10;;;;;;;16.21;87.79;102016.66;5074423;28;20535;-74
2022/07/22 02:55:51;;;;;;;11.15;2.95;;;;;;;16.20;87.87;102012.25;5087105;28;20099;-74
2022/07/22 02:58:19;;;;;;;13.38;3.35;;;;;;;16.21;88.03;102010.47;5069929;28;20045;-74
2022/07/22 03:00:47;;;;;;;10.95;3.08;;;;;;;16.22;88.04;102017.53;5068691;28;20523;-74
2022/07/22 03:03:14;;;;;;;8.48;3.13;;;;;;;16.23;87.50;102021.91;5071548;28;20114;-74
2022/07/22 03:05:42;;;;;;;15.82;3.35;;;;;;;16.22;86.71;102023.69;5066725;28;20045;-73
2022/07/22 03:08:18;;;;;;;11.45;3.75;;;;;;;16.22;86.31;102023.69;5085846;28;20103;-73
2022/07/22 03:10:46;;;;;;;13.60;3.95;;;;;;;16.23;86.89;102022.78;5082393;28;20520;-73
2022/07/22 03:13:13;;;;;;;10.15;3.60;;;;;;;16.25;86.71;102025.38;5069338;28;20475;-73
2022/07/22 03:15:44;;;;;;;9.85;3.67;;;;;;;16.26;86.92;102019.13;5073470;28;20106;-73
2022/07/22 03:18:12;;;;;;;9.85;3.95;;;;;;;16.27;86.99;102020.88;5070700;28;20499;-71
2022/07/22 03:20:42;;;;;;;13.38;3.92;;;;;;;16.29;85.98;102027.03;5085511;28;20041;-72
2022/07/22 03:23:09;;;;;;;11.38;3.85;;;;;;;16.25;85.73;102033.38;5069837;28;20582;-71
2022/07/22 03:25:38;;;;;;;10.77;3.97;;;;;;;16.23;85.95;102028.09;5066866;28;20045;-71
2022/07/22 03:28:07;;;;;;;8.05;3.70;;;;;;;16.21;85.68;102021.97;5065835;28;20077;-71
2022/07/22 03:30:35;;;;;;;14.70;3.95;;;;;;;16.19;85.26;102020.28;5069548;28;20052;-71
2022/07/22 03:33:03;;;;;;;12.80;4.60;;;;;;;16.17;85.68;102015.03;5090663;28;20056;-71
2022/07/22 03:35:35;;;;;;;10.60;4.43;;;;;;;16.17;85.76;102015.03;5089665;28;20036;-71
2022/07/22 03:38:03;;;;;;;12.63;3.85;;;;;;;16.18;86.20;102013.22;5075341;28;20045;-71
2022/07/22 03:40:31;;;;;;;12.50;4.45;;;;;;;16.18;85.70;102010.56;5075400;28;20041;-71
2022/07/22 03:42:59;;;;;;;13.38;4.95;;;;;;;16.16;85.78;102005.31;5072969;28;20049;-71
2022/07/22 03:45:26;;;;;;;15.98;4.82;;;;;;;16.15;85.79;102008.88;5074458;28;20034;-71
2022/07/22 03:47:54;;;;;;;11.15;3.72;;;;;;;16.16;86.20;102005.31;5073969;28;20099;-71
2022/07/22 03:50:24;;;;;;;12.48;4.75;;;;;;;16.18;86.53;102002.59;5089386;28;20523;-71
2022/07/22 03:52:52;;;;;;;8.80;3.70;;;;;;;16.17;86.67;102007.06;5089579;28;20529;-72
2022/07/22 03:55:20;;;;;;;8.60;4.13;;;;;;;16.18;86.64;102006.09;5081019;28;20852;-71
2022/07/22 03:57:51;;;;;;;10.35;4.47;;;;;;;16.18;87.29;101999.94;5073300;28;20033;-72
2022/07/22 04:00:24;;;;;;;9.38;4.57;;;;;;;16.20;87.26;101996.28;5071778;28;20049;-71
2022/07/22 04:02:51;;;;;;;15.60;4.57;;;;;;;16.21;87.43;102005.16;5071847;28;20122;-71
2022/07/22 04:05:38;;;;;;;9.57;4.07;;;;;;;16.22;87.52;102009.53;5078482;28;20140;-71
2022/07/22 04:08:07;;;;;;;10.85;4.20;;;;;;;16.20;87.49;102004.25;5086140;28;20512;-71
2022/07/22 04:10:35;;;;;;;16.27;4.18;;;;;;;16.21;87.54;102002.50;5086938;28;20041;-70
2022/07/22 04:13:02;;;;;;;10.07;3.97;;;;;;;16.21;87.72;102006.00;5073903;28;20153;-70
2022/07/22 04:15:44;;;;;;;8.93;3.80;;;;;;;16.23;87.58;102016.56;5085148;28;20098;-70
2022/07/22 04:18:12;;;;;;;8.88;3.78;;;;;;;16.25;87.38;102017.41;5072127;28;20056;-70
2022/07/22 04:20:39;;;;;;;9.20;3.45;;;;;;;16.29;86.79;102016.38;5070236;28;20048;-70
2022/07/22 04:23:22;;;;;;;13.23;3.33;;;;;;;16.30;86.52;102007.47;5089874;28;20053;-69
2022/07/22 04:25:58;;;;;;;11.60;3.30;;;;;;;16.34;86.30;102010.88;5089142;28;20041;-71
2022/07/22 04:28:25;;;;;;;11.80;3.53;;;;;;;16.35;85.41;102018.81;5075976;28;20472;-70
2022/07/22 04:30:53;;;;;;;8.73;2.70;;;;;;;16.37;85.28;102019.63;5087189;28;20131;-69
2022/07/22 04:33:20;;;;;;;10.35;3.33;;;;;;;16.39;85.20;102011.56;5072572;28;20045;-70
2022/07/22 04:35:47;;;;;;;11.35;3.58;;;;;;;16.39;84.99;102020.44;5089288;28;20120;-70
2022/07/22 04:38:17;;;;;;;15.73;4.03;;;;;;;16.40;84.59;102011.53;5084208;28;20074;-70
2022/07/22 04:41:11;;;;;;;12.45;3.88;;;;;;;16.40;84.87;102006.22;5065946;28;20146;-70
2022/07/22 04:43:38;;;;;;;16.90;4.10;;;;;;;16.45;85.11;102008.72;5073182;28;20545;-70
2022/07/22 04:46:07;;;;;;;14.93;4.18;;;;;;;16.50;85.18;102013.88;5086682;28;20053;-72
2022/07/22 04:48:39;;;;;;;12.98;3.75;;;;;;;16.54;85.01;102015.47;5086748;28;20037;-71
2022/07/22 04:51:06;;;;;;;9.10;3.13;;;;;;;16.57;84.33;102010.03;5087893;28;20044;-71
2022/07/22 04:53:34;;;;;;;8.93;3.60;;;;;;;16.60;83.88;102013.44;5089029;28;20045;-72
2022/07/22 04:56:15;;;;;;;11.13;3.40;;;;;;;16.63;83.63;102009.84;5084830;28;20041;-72
2022/07/22 04:58:43;;;;;;;14.82;3.60;;;;;;;16.63;83.65;102006.28;5089310;28;20069;-72
2022/07/22 05:01:10;;;;;;;14.75;3.55;;;;;;;16.66;83.37;102012.34;5071559;28;20067;-71
2022/07/22 05:03:40;;;;;;;13.90;3.58;;;;;;;16.70;83.80;102013.09;5087235;28;20033;-71
2022/07/22 05:06:08;;;;;;;15.65;3.83;;;;;;;16.76;83.98;102004.91;5089571;28;20040;-71
2022/07/22 05:08:41;;;;;;;10.73;3.78;;;;;;;16.84;83.86;102007.28;5076715;28;20036;-71
2022/07/22 05:11:08;;;;;;;13.45;3.20;;;;;;;16.92;83.38;102007.84;5072219;28;20448;-71
2022/07/22 05:13:35;;;;;;;10.55;3.40;;;;;;;16.96;83.12;101997.97;5087691;28;20071;-71
2022/07/22 05:16:07;;;;;;;9.77;2.58;;;;;;;16.98;82.89;102009.44;5073473;28;20110;-71
2022/07/22 05:18:36;;;;;;;17.43;4.53;;;;;;;17.01;83.03;102006.66;5088863;28;20070;-71
2022/07/22 05:21:06;;;;;;;10.13;3.80;;;;;;;17.06;82.73;102004.69;5087758;28;20045;-71
2022/07/22 05:23:33;;;;;;;9.55;3.75;;;;;;;17.13;82.76;102013.31;5071763;28;20522;-72
2022/07/22 05:26:00;;;;;;;10.88;3.85;;;;;;;17.15;82.67;102008.75;5073033;28;20041;-71
2022/07/22 05:28:28;;;;;;;14.43;4.32;;;;;;;17.17;82.27;101999.81;5071471;28;20525;-71
2022/07/22 05:30:56;;;;;;;18.05;3.97;;;;;;;17.19;82.63;101995.28;5069625;28;20040;-71
2022/07/22 05:33:27;;;;;;;13.90;3.67;;;;;;;17.22;82.48;101999.63;5071834;28;20412;-71
2022/07/22 05:36:05;;;;;;;16.00;3.80;;;;;;;17.28;82.10;102009.16;5069471;28;20041;-71
2022/07/22 05:38:39;;;;;;;8.23;2.97;;;;;;;17.33;81.77;102008.06;5073382;28;20106;-71
2022/07/22 05:41:07;;;;;;;10.70;3.58;;;;;;;17.34;81.28;102011.56;5087558;28;20045;-71
2022/07/22 05:43:35;;;;;;;13.00;3.30;;;;;;;17.36;80.80;102004.38;5087566;28;20071;-71
2022/07/22 05:46:07;;;;;;;11.18;3.20;;;;;;;17.37;80.92;102009.66;5087247;28;20045;-71
2022/07/22 05:48:34;;;;;;;8.90;3.10;;;;;;;17.40;80.86;102005.97;5086982;28;20041;-71
2022/07/22 05:51:02;;;;;;;11.73;3.13;;;;;;;17.44;80.55;102014.75;5091694;28;20055;-71
2022/07/22 05:53:31;;;;;;;11.77;2.90;;;;;;;17.47;80.18;102015.47;5071286;28;20040;-70
2022/07/22 05:55:59;;;;;;;12.02;2.97;;;;;;;17.52;79.80;102012.63;5070375;28;20048;-71
2022/07/22 05:58:34;;;;;;;14.55;3.03;;;;;;;17.54;79.28;102022.28;5084811;28;20052;-71
2022/07/22 06:01:02;;;;;;;9.23;3.50;;;;;;;17.57;79.08;102020.44;5070754;28;20098;-71
2022/07/22 06:03:39;;;;;;;12.32;3.00;;;;;;;17.59;78.83;102022.09;5086448;28;20037;-70
2022/07/22 06:06:08;;;;;;;10.80;2.92;;;;;;;17.57;79.00;102015.09;5086152;28;20507;-71
2022/07/22 06:08:36;;;;;;;9.02;3.20;;;;;;;17.60;79.04;102023.00;5084784;28;20060;-71
2022/07/22 06:11:04;;;;;;;8.35;2.50;;;;;;;17.64;78.57;102022.78;5069549;28;20662;-71
2022/07/22 06:13:33;;;;;;;7.95;2.75;;;;;;;17.71;78.01;102018.03;5071572;28;20040;-71
2022/07/22 06:16:01;;;;;;;6.95;2.75;;;;;;;17.79;78.38;102017.72;5089336;28;20037;-71
2022/07/22 06:18:31;;;;;;;4.50;2.30;;;;;;;17.87;77.06;102017.41;5086176;28;20111;-70
2022/07/22 06:20:58;;;;;;;5.20;2.30;;;;;;;17.84;76.03;102016.59;5090656;28;20116;-71
2022/07/22 06:23:27;;;;;;;13.32;2.53;;;;;;;17.84;76.35;102019.28;5066112;28;20041;-70
2022/07/22 06:25:54;;;;;;;7.13;2.10;;;;;;;17.88;76.15;102014.69;5087852;28;20033;-70
2022/07/22 06:28:26;;;;;;;7.30;1.85;;;;;;;17.91;75.57;102017.22;5088125;28;20048;-70
2022/07/22 06:30:53;;;;;;;11.52;2.33;;;;;;;17.98;75.47;102012.53;5070840;28;20505;-71
2022/07/22 06:33:22;;;;;;;8.30;2.45;;;;;;;18.03;76.02;102010.50;5091728;28;20045;-70
2022/07/22 06:35:55;;;;;;;6.03;1.92;;;;;;;18.13;75.96;102011.00;5071121;28;20041;-70
2022/07/22 06:38:23;;;;;;;4.88;1.95;;;;;;;18.22;75.75;102015.03;5100907;28;20484;-69
2022/07/22 06:41:22;;;;;;;7.50;2.08;;;;;;;18.26;74.90;102020.19;5051998;28;20042;-70
2022/07/22 06:44:13;;;;;;;5.38;1.75;;;;;;;18.28;73.99;102012.97;5065323;28;20055;-70
2022/07/22 06:46:57;;;;;;;5.63;1.70;;;;;;;18.29;74.40;102016.53;5084148;28;20068;-70
2022/07/22 06:49:26;;;;;;;7.25;1.70;;;;;;;18.35;74.24;102010.06;5085849;28;20504;-70
2022/07/22 06:51:54;;;;;;;8.90;2.00;;;;;;;18.42;73.77;102016.84;5069564;28;20057;-70
2022/07/22 06:54:23;;;;;;;7.03;1.85;;;;;;;18.46;72.79;102015.78;5087749;28;20052;-69
2022/07/22 06:56:52;;;;;;;11.80;1.85;;;;;;;18.47;73.08;102013.03;5086365;28;20104;-70
2022/07/22 06:59:25;;;;;;;9.85;2.35;;;;;;;18.55;73.61;102012.69;5084996;28;20051;-69
2022/07/22 07:01:54;;;;;;;8.90;2.33;;;;;;;18.59;73.09;102019.59;5084128;28;20037;-70
2022/07/22 07:04:23;;;;;;;6.28;1.90;;;;;;;18.63;72.75;102017.66;5083857;28;20405;-70
2022/07/22 07:06:50;;;;;;;4.38;1.80;;;;;;;18.63;72.53;102009.66;5085687;28;20041;-69
2022/07/22 07:09:32;;;;;;;16.58;2.78;;;;;;;18.63;71.73;102004.31;5069941;28;20115;-70
2022/07/22 07:12:14;;;;;;;7.35;2.13;;;;;;;18.60;71.83;102007.13;5067866;28;20140;-70
2022/07/22 07:15:05;;;;;;;6.57;2.20;;;;;;;18.62;71.88;102016.81;5068620;28;20420;-68
2022/07/22 07:17:56;;;;;;;10.50;2.22;;;;;;;18.66;72.12;102012.19;5085985;28;20575;-69
2022/07/22 07:20:26;;;;;;;6.13;2.28;;;;;;;18.70;72.12;102013.78;5086020;28;20057;-69
2022/07/22 07:22:59;;;;;;;9.95;2.15;;;;;;;18.74;72.36;102017.19;5066063;28;20049;-68
2022/07/22 07:25:27;;;;;;;6.05;2.05;;;;;;;18.76;71.78;102010.81;5082415;28;20551;-69
2022/07/22 07:27:55;;;;;;;11.90;1.98;;;;;;;18.85;71.81;102008.66;5065535;28;20439;-69
2022/07/22 07:30:46;;;;;;;12.93;2.20;;;;;;;18.99;71.07;102000.91;5082407;28;20095;-69
2022/07/22 07:33:14;;;;;;;12.38;2.53;;;;;;;19.09;70.19;102001.31;5082689;28;20114;-71
2022/07/22 07:36:07;;;;;;;11.05;2.38;;;;;;;19.15;69.81;102002.81;5082758;28;20052;-70
2022/07/22 07:38:41;;;;;;;9.05;2.15;;;;;;;19.20;68.98;101993.66;5064072;28;20049;-70
2022/07/22 07:41:13;;;;;;;5.90;1.80;;;;;;;19.25;69.17;101990.75;5083169;28;20063;-70
2022/07/22 07:43:43;;;;;;;8.60;2.20;;;;;;;19.27;69.11;101999.56;5081859;28;20108;-70
2022/07/22 07:46:36;;;;;;;5.18;1.80;;;;;;;19.28;68.45;101995.09;5065774;28;20483;-70
2022/07/22 07:49:04;;;;;;;5.15;1.77;;;;;;;19.25;68.94;102001.44;5082085;28;20033;-70
2022/07/22 07:51:31;;;;;;;8.05;1.80;;;;;;;19.21;68.60;101998.06;5083450;28;20103;-70
2022/07/22 07:53:59;;;;;;;5.80;2.25;;;;;;;19.23;67.92;102004.19;5064522;28;20049;-70
2022/07/22 07:56:26;;;;;;;4.88;2.10;;;;;;;19.23;68.11;101993.50;5082249;28;20065;-70
2022/07/22 07:58:54;;;;;;;4.57;1.75;;;;;;;19.25;68.12;101996.09;5064799;28;20144;-69
2022/07/22 08:01:43;;;;;;;4.88;1.80;;;;;;;19.26;68.32;101996.97;5079863;28;20122;-70
2022/07/22 08:04:28;;;;;;;12.18;2.47;;;;;;;19.32;68.47;101999.34;5067066;28;20067;-67
2022/07/22 08:07:09;;;;;;;5.15;2.03;;;;;;;19.41;68.05;102001.56;5080978;28;20044;-69
2022/07/22 08:09:40;;;;;;;5.22;1.70;;;;;;;19.45;67.09;101997.81;5080622;28;20037;-69
2022/07/22 08:12:16;;;;;;;5.25;3.13;;;;;;;19.49;67.68;101995.84;5081024;28;20061;-70
2022/07/22 08:15:16;;;;;;;18.63;2.25;;;;;;;19.63;67.21;101993.34;5082324;28;20067;-70
2022/07/22 08:17:54;;;;;;;9.30;1.80;;;;;;;19.68;66.86;101990.44;5071894;28;20107;-70
2022/07/22 08:20:25;;;;;;;15.43;2.40;;;;;;;19.73;66.46;101999.06;5069030;28;20041;-71
2022/07/22 08:22:53;;;;;;;4.32;1.48;;;;;;;19.74;66.04;102002.63;5086392;28;20088;-70
2022/07/22 08:25:22;;;;;;;4.22;1.40;;;;;;;19.75;64.78;101999.00;5086186;28;20112;-69
2022/07/22 08:27:50;;;;;;;6.50;1.33;;;;;;;19.68;64.34;101996.63;5086321;28;20049;-69
2022/07/22 08:30:18;;;;;;;3.50;1.42;;;;;;;19.67;62.76;101994.06;5085207;28;20041;-69
2022/07/22 08:32:46;;;;;;;3.85;1.40;;;;;;;19.51;63.57;101997.47;5068853;28;20037;-69
2022/07/22 08:35:15;;;;;;;2.47;1.20;;;;;;;19.50;62.83;101993.06;5086864;28;20061;-68
2022/07/22 08:37:42;;;;;;;3.20;0.98;;;;;;;19.48;62.77;101986.06;5088858;28;20041;-68
2022/07/22 08:40:10;;;;;;;5.65;1.10;;;;;;;19.50;62.37;101992.22;5084213;28;20083;-69
2022/07/22 08:42:39;;;;;;;3.60;1.63;;;;;;;19.51;63.16;101977.91;5068209;28;20036;-69
2022/07/22 08:45:08;;;;;;;5.10;1.70;;;;;;;19.59;63.90;101988.19;5081248;28;20049;-69
2022/07/22 08:47:51;;;;;;;3.38;1.38;;;;;;;19.70;63.61;101986.72;5084653;28;20049;-70
2022/07/22 08:50:38;;;;;;;3.13;1.60;;;;;;;19.85;64.93;101986.88;5066549;28;20090;-69
2022/07/22 08:53:28;;;;;;;4.22;1.15;;;;;;;20.06;63.38;101978.72;5067058;28;20088;-69
2022/07/22 08:56:01;;;;;;;5.75;1.38;;;;;;;20.13;63.83;101981.00;5085162;28;20131;-69
2022/07/22 08:58:30;;;;;;;8.68;1.55;;;;;;;20.31;62.87;101994.34;5085934;28;20041;-69
2022/07/22 09:01:12;;;;;;;2.50;1.33;;;;;;;20.44;61.66;101983.84;5058385;28;20045;-69
2022/07/22 09:03:55;;;;;;;7.47;1.98;;;;;;;20.41;62.73;101987.53;5065704;28;20520;-69
2022/07/22 09:06:33;;;;;;;6.70;1.50;;;;;;;20.47;62.23;101987.22;5065413;28;20048;-69
2022/07/22 09:09:05;;;;;;;8.68;1.55;;;;;;;20.52;62.08;101983.41;5065590;28;20523;-70
2022/07/22 09:12:09;;;;;;;6.88;1.60;;;;;;;20.59;61.86;101987.50;5079376;28;20071;-69
2022/07/22 09:15:02;;;;;;;5.00;1.35;;;;;;;20.66;61.89;101988.00;5066504;28;20052;-69
2022/07/22 09:17:37;;;;;;;5.53;1.60;;;;;;;20.73;61.91;101982.25;5087532;28;20099;-70
2022/07/22 09:20:43;;;;;;;3.75;1.60;;;;;;;20.93;60.83;101981.16;5044559;28;20199;-69
2022/07/22 09:23:41;;;;;;;8.65;1.83;;;;;;;21.04;60.85;101988.59;5084738;28;20046;-69
2022/07/22 09:26:33;;;;;;;11.10;1.98;;;;;;;21.12;60.59;101987.28;5068339;28;20056;-69
2022/07/22 09:29:30;;;;;;;5.90;2.10;;;;;;;21.06;60.05;101983.16;5064966;28;20463;-69
2022/07/22 09:32:24;;;;;;;13.30;2.47;;;;;;;21.07;60.41;101987.53;5069978;28;20048;-70
2022/07/22 09:35:04;;;;;;;3.90;1.33;;;;;;;21.18;59.73;101984.28;5076712;28;20033;-70
2022/07/22 09:38:05;;;;;;;5.70;1.45;;;;;;;21.14;59.18;101980.91;5061973;28;20057;-70
2022/07/22 09:40:39;;;;;;;4.45;1.60;;;;;;;21.05;57.91;101978.75;5084967;28;20060;-68
2022/07/22 09:43:12;;;;;;;6.18;1.50;;;;;;;21.01;57.65;101974.50;5084834;28;20095;-68
2022/07/22 09:45:59;;;;;;;3.30;1.10;;;;;;;21.08;58.20;101974.06;5084651;28;20067;-68
2022/07/22 09:48:49;;;;;;;3.42;1.20;;;;;;;21.50;56.91;101965.44;5061772;28;20440;-68
2022/07/22 09:51:36;;;;;;;5.38;1.88;;;;;;;21.87;57.16;101965.97;5075962;28;20543;-68
2022/07/22 09:54:31;;;;;;;8.25;2.00;;;;;;;22.03;56.17;101965.88;5048126;28;20212;-69
2022/07/22 09:56:59;;;;;;;4.40;1.70;;;;;;;21.85;56.58;101967.88;5093063;28;20048;-69
2022/07/22 09:59:27;;;;;;;4.70;1.83;;;;;;;21.66;57.59;101965.44;5084613;28;20826;-70
2022/07/22 10:02:17;;;;;;;7.00;1.50;;;;;;;21.64;57.81;101957.47;5081113;28;20118;-69
2022/07/22 10:04:47;;;;;;;3.17;1.60;;;;;;;21.78;56.90;101963.84;5070904;28;20048;-69
2022/07/22 10:07:17;;;;;;;6.20;1.98;;;;;;;21.87;56.75;101952.53;5083991;28;20063;-70
2022/07/22 10:09:47;;;;;;;9.73;1.80;;;;;;;21.98;56.55;101950.06;5081049;28;20134;-69
2022/07/22 10:12:17;;;;;;;4.95;1.73;;;;;;;22.16;55.22;101939.13;5079800;28;20447;-69
2022/07/22 10:14:46;;;;;;;4.05;1.33;;;;;;;22.25;54.49;101943.09;5068688;28;20053;-70
2022/07/22 10:17:14;;;;;;;4.28;2.28;;;;;;;22.23;54.06;101948.53;5082435;28;20037;-69
2022/07/22 10:19:44;;;;;;;5.28;1.95;;;;;;;22.24;54.11;101946.72;5082756;28;20044;-70
2022/07/22 10:22:41;;;;;;;2.63;1.75;;;;;;;22.28;53.58;101951.81;5083066;28;21013;-70
2022/07/22 10:25:14;;;;;;;4.90;1.85;;;;;;;22.40;54.46;101941.25;5082836;28;20152;-69
2022/07/22 10:27:58;;;;;;;3.47;1.70;;;;;;;22.41;54.08;101949.22;5083123;28;20073;-69
2022/07/22 10:30:31;;;;;;;4.75;1.30;;;;;;;22.59;54.11;101952.59;5064926;28;20045;-69
2022/07/22 10:33:22;;;;;;;9.85;2.30;;;;;;;22.80;51.57;101952.16;5068450;28;20048;-70
2022/07/22 10:36:03;;;;;;;7.65;1.73;;;;;;;22.90;52.31;101947.03;5067698;28;20073;-69
2022/07/22 10:38:33;;;;;;;6.07;2.03;;;;;;;22.82;53.38;101946.69;5083640;28;20049;-68
2022/07/22 10:41:09;;;;;;;7.97;2.05;;;;;;;22.87;52.49;101950.78;5075192;28;20037;-71
2022/07/22 10:43:42;;;;;;;7.78;1.83;;;;;;;22.89;52.61;101954.25;5069730;28;20051;-70
2022/07/22 10:46:16;;;;;;;3.40;1.50;;;;;;;22.92;51.90;101961.25;5067434;28;20039;-70
2022/07/22 10:48:48;;;;;;;26.52;2.38;;;;;;;23.02;52.69;101956.13;5067982;28;20451;-70
2022/07/22 10:51:28;;;;;;;7.57;1.77;;;;;;;23.23;52.01;101962.81;5068537;28;20049;-70
2022/07/22 10:54:02;;;;;;;2.30;1.48;;;;;;;23.60;50.74;101954.09;5070345;28;20060;-70
2022/07/22 10:56:31;;;;;;;5.63;1.75;;;;;;;23.78;50.89;101943.03;5068135;28;20041;-70
2022/07/22 10:59:23;;;;;;;2.85;1.73;;;;;;;24.02;48.34;101929.72;5068339;28;20088;-70
2022/07/22 11:01:54;;;;;;;4.20;1.90;;;;;;;24.10;48.30;101930.03;5052307;28;20120;-70
2022/07/22 11:04:25;;;;;;;8.73;2.00;;;;;;;23.98;48.38;101941.66;5063613;28;20048;-70
2022/07/22 11:06:56;;;;;;;5.88;2.08;;;;;;;23.95;48.63;101937.34;5073017;28;20088;-70
2022/07/22 11:09:34;;;;;;;4.13;1.80;;;;;;;23.96;49.20;101936.38;5075182;28;20044;-70
2022/07/22 11:12:05;;;;;;;3.25;1.77;;;;;;;24.01;48.89;101931.53;5070052;28;20041;-70
2022/07/22 11:14:36;;;;;;;4.03;1.70;;;;;;;23.99;48.01;101927.22;5067382;28;20053;-71
2022/07/22 11:17:13;;;;;;;4.80;1.73;;;;;;;23.96;46.98;101925.63;5067672;28;20043;-70
2022/07/22 11:19:44;;;;;;;5.95;1.98;;;;;;;24.01;47.85;101915.38;5066634;28;20808;-70
2022/07/22 11:22:15;;;;;;;5.68;1.70;;;;;;;24.00;46.74;101921.75;5066948;28;20605;-70
2022/07/22 11:24:49;;;;;;;5.72;1.60;;;;;;;24.02;47.24;101913.56;5063046;28;20120;-70
2022/07/22 11:27:21;;;;;;;3.22;1.42;;;;;;;23.87;47.02;101913.63;5065296;28;20518;-70
2022/07/22 11:29:52;;;;;;;7.78;2.20;;;;;;;23.72;47.12;101914.72;5066010;28;20044;-69
2022/07/22 11:32:22;;;;;;;11.30;2.13;;;;;;;23.67;46.95;101917.72;5068756;28;20052;-71
2022/07/22 11:34:56;;;;;;;3.55;1.27;;;;;;;23.98;46.21;101914.72;5079434;28;20075;-71
2022/07/22 11:37:26;;;;;;;3.20;1.40;;;;;;;24.35;44.90;101912.97;5089233;28;20523;-70
2022/07/22 11:40:05;;;;;;;8.82;1.75;;;;;;;24.60;45.34;101913.00;5084614;28;20037;-70
2022/07/22 11:42:34;;;;;;;4.75;1.58;;;;;;;24.65;44.25;101909.00;5085902;28;20102;-71
2022/07/22 11:45:03;;;;;;;10.50;1.98;;;;;;;24.98;43.88;101911.19;5076745;28;20053;-72